sensor_id;sensor_type;location;lat;lon;timestamp;temperature;humidity
65836;SHT30;52595;51.608;7.216;2022-11-04T00:01:32;10.09;96.34
65836;SHT30;52595;51.608;7.216;2022-11-04T00:03:58;10.12;95.84
65836;SHT30;52595;51.608;7.216;2022-11-04T00:06:24;10.07;96.05
65836;SHT30;52595;51.608;7.216;2022-11-04T00:08:55;9.99;96.80
65836;SHT30;52595;51.608;7.216;2022-11-04T00:11:21;9.95;96.32
65836;SHT30;52595;51.608;7.216;2022-11-04T00:14:06;9.98;96.23
65836;SHT30;52595;51.608;7.216;2022-11-04T00:16:32;9.94;96.31
65836;SHT30;52595;51.608;7.216;2022-11-04T00:19:16;9.93;96.44
65836;SHT30;52595;51.608;7.216;2022-11-04T00:21:41;9.94;96.23
65836;SHT30;52595;51.608;7.216;2022-11-04T00:24:26;9.90;96.32
65836;SHT30;52595;51.608;7.216;2022-11-04T00:27:07;9.91;95.67
65836;SHT30;52595;51.608;7.216;2022-11-04T00:29:51;9.84;96.27
65836;SHT30;52595;51.608;7.216;2022-11-04T00:32:17;9.87;95.85
65836;SHT30;52595;51.608;7.216;2022-11-04T00:35:01;9.81;96.04
65836;SHT30;52595;51.608;7.216;2022-11-04T00:37:26;9.71;96.32
65836;SHT30;52595;51.608;7.216;2022-11-04T00:39:52;9.73;96.09
65836;SHT30;52595;51.608;7.216;2022-11-04T00:42:17;9.80;95.72
65836;SHT30;52595;51.608;7.216;2022-11-04T00:44:42;9.84;95.48
65836;SHT30;52595;51.608;7.216;2022-11-04T00:47:08;9.90;95.06
65836;SHT30;52595;51.608;7.216;2022-11-04T00:49:33;9.86;95.16
65836;SHT30;52595;51.608;7.216;2022-11-04T00:51:58;9.93;94.37
65836;SHT30;52595;51.608;7.216;2022-11-04T00:54:24;9.98;93.67
65836;SHT30;52595;51.608;7.216;2022-11-04T00:56:49;10.05;92.94
65836;SHT30;52595;51.608;7.216;2022-11-04T00:59:14;10.08;92.62
65836;SHT30;52595;51.608;7.216;2022-11-04T01:01:40;10.12;92.43
65836;SHT30;52595;51.608;7.216;2022-11-04T01:04:06;10.18;92.24
65836;SHT30;52595;51.608;7.216;2022-11-04T01:06:31;10.25;91.63
65836;SHT30;52595;51.608;7.216;2022-11-04T01:08:59;10.27;91.59
65836;SHT30;52595;51.608;7.216;2022-11-04T01:11:25;10.32;91.58
65836;SHT30;52595;51.608;7.216;2022-11-04T01:13:52;10.32;91.40
65836;SHT30;52595;51.608;7.216;2022-11-04T01:16:18;10.31;91.75
65836;SHT30;52595;51.608;7.216;2022-11-04T01:18:43;10.31;91.67
65836;SHT30;52595;51.608;7.216;2022-11-04T01:21:13;10.32;91.53
65836;SHT30;52595;51.608;7.216;2022-11-04T01:23:41;10.31;91.47
65836;SHT30;52595;51.608;7.216;2022-11-04T01:26:18;10.35;91.20
65836;SHT30;52595;51.608;7.216;2022-11-04T01:28:44;10.38;90.66
65836;SHT30;52595;51.608;7.216;2022-11-04T01:31:21;10.38;90.98
65836;SHT30;52595;51.608;7.216;2022-11-04T01:33:48;10.38;90.69
65836;SHT30;52595;51.608;7.216;2022-11-04T01:36:13;10.34;91.02
65836;SHT30;52595;51.608;7.216;2022-11-04T01:38:39;10.32;91.04
65836;SHT30;52595;51.608;7.216;2022-11-04T01:41:06;10.28;91.36
65836;SHT30;52595;51.608;7.216;2022-11-04T01:43:49;10.17;92.23
65836;SHT30;52595;51.608;7.216;2022-11-04T01:46:34;10.12;92.48
65836;SHT30;52595;51.608;7.216;2022-11-04T01:51:50;10.17;92.05
65836;SHT30;52595;51.608;7.216;2022-11-04T01:54:19;10.18;92.50
65836;SHT30;52595;51.608;7.216;2022-11-04T01:56:45;10.17;92.52
65836;SHT30;52595;51.608;7.216;2022-11-04T01:59:18;10.18;92.41
65836;SHT30;52595;51.608;7.216;2022-11-04T02:01:45;10.21;92.40
65836;SHT30;52595;51.608;7.216;2022-11-04T02:04:12;10.22;92.29
65836;SHT30;52595;51.608;7.216;2022-11-04T02:07:01;10.29;91.89
65836;SHT30;52595;51.608;7.216;2022-11-04T02:09:29;10.31;91.96
65836;SHT30;52595;51.608;7.216;2022-11-04T02:11:55;10.29;92.22
65836;SHT30;52595;51.608;7.216;2022-11-04T02:14:39;10.27;92.49
65836;SHT30;52595;51.608;7.216;2022-11-04T02:20:13;10.37;91.62
65836;SHT30;52595;51.608;7.216;2022-11-04T02:31:06;10.18;92.01
65836;SHT30;52595;51.608;7.216;2022-11-04T02:33:44;10.09;92.43
65836;SHT30;52595;51.608;7.216;2022-11-04T02:37:11;10.18;91.83
65836;SHT30;52595;51.608;7.216;2022-11-04T02:39:37;10.18;91.67
65836;SHT30;52595;51.608;7.216;2022-11-04T02:42:15;10.11;91.88
65836;SHT30;52595;51.608;7.216;2022-11-04T02:44:48;10.04;92.07
65836;SHT30;52595;51.608;7.216;2022-11-04T02:47:20;10.04;92.27
65836;SHT30;52595;51.608;7.216;2022-11-04T02:49:59;10.09;91.89
65836;SHT30;52595;51.608;7.216;2022-11-04T02:52:38;10.08;91.77
65836;SHT30;52595;51.608;7.216;2022-11-04T02:55:12;10.12;91.02
65836;SHT30;52595;51.608;7.216;2022-11-04T02:57:41;9.99;91.74
65836;SHT30;52595;51.608;7.216;2022-11-04T03:00:09;10.02;91.64
65836;SHT30;52595;51.608;7.216;2022-11-04T03:02:47;10.08;91.68
65836;SHT30;52595;51.608;7.216;2022-11-04T03:05:16;10.09;91.77
65836;SHT30;52595;51.608;7.216;2022-11-04T03:07:46;10.14;91.74
65836;SHT30;52595;51.608;7.216;2022-11-04T03:10:20;10.15;91.82
65836;SHT30;52595;51.608;7.216;2022-11-04T03:13:09;10.18;91.62
65836;SHT30;52595;51.608;7.216;2022-11-04T03:15:38;10.17;91.64
65836;SHT30;52595;51.608;7.216;2022-11-04T03:21:12;10.18;91.32
65836;SHT30;52595;51.608;7.216;2022-11-04T03:23:39;10.14;91.57
65836;SHT30;52595;51.608;7.216;2022-11-04T03:26:21;10.11;91.44
65836;SHT30;52595;51.608;7.216;2022-11-04T03:28:58;10.02;91.65
65836;SHT30;52595;51.608;7.216;2022-11-04T03:31:37;9.93;91.88
65836;SHT30;52595;51.608;7.216;2022-11-04T03:34:04;9.81;92.15
65836;SHT30;52595;51.608;7.216;2022-11-04T03:36:30;9.69;92.45
65836;SHT30;52595;51.608;7.216;2022-11-04T03:38:55;9.67;92.52
65836;SHT30;52595;51.608;7.216;2022-11-04T03:41:35;9.60;92.46
65836;SHT30;52595;51.608;7.216;2022-11-04T03:44:03;9.61;92.45
65836;SHT30;52595;51.608;7.216;2022-11-04T03:46:28;9.51;92.74
65836;SHT30;52595;51.608;7.216;2022-11-04T03:48:54;9.44;92.96
65836;SHT30;52595;51.608;7.216;2022-11-04T03:51:20;9.47;92.75
65836;SHT30;52595;51.608;7.216;2022-11-04T03:53:46;9.37;93.07
65836;SHT30;52595;51.608;7.216;2022-11-04T03:56:28;9.36;92.93
65836;SHT30;52595;51.608;7.216;2022-11-04T03:59:20;9.32;92.93
65836;SHT30;52595;51.608;7.216;2022-11-04T04:06:55;9.23;93.14
65836;SHT30;52595;51.608;7.216;2022-11-04T04:09:47;9.24;92.95
65836;SHT30;52595;51.608;7.216;2022-11-04T04:12:34;9.15;93.06
65836;SHT30;52595;51.608;7.216;2022-11-04T04:15:13;9.22;92.72
65836;SHT30;52595;51.608;7.216;2022-11-04T04:17:45;9.19;92.68
65836;SHT30;52595;51.608;7.216;2022-11-04T04:20:18;9.22;92.46
65836;SHT30;52595;51.608;7.216;2022-11-04T04:22:48;9.20;92.34
65836;SHT30;52595;51.608;7.216;2022-11-04T04:25:17;9.20;92.39
65836;SHT30;52595;51.608;7.216;2022-11-04T04:28:03;9.23;92.40
65836;SHT30;52595;51.608;7.216;2022-11-04T04:30:30;9.18;92.48
65836;SHT30;52595;51.608;7.216;2022-11-04T04:32:59;9.16;92.56
65836;SHT30;52595;51.608;7.216;2022-11-04T04:35:34;9.06;92.79
65836;SHT30;52595;51.608;7.216;2022-11-04T04:38:23;8.99;93.26
65836;SHT30;52595;51.608;7.216;2022-11-04T04:44:12;9.08;92.61
65836;SHT30;52595;51.608;7.216;2022-11-04T04:46:58;8.99;93.00
65836;SHT30;52595;51.608;7.216;2022-11-04T04:49:25;8.89;93.15
65836;SHT30;52595;51.608;7.216;2022-11-04T04:52:00;8.91;93.36
65836;SHT30;52595;51.608;7.216;2022-11-04T04:54:26;8.91;93.50
65836;SHT30;52595;51.608;7.216;2022-11-04T04:56:51;8.95;93.21
65836;SHT30;52595;51.608;7.216;2022-11-04T04:59:16;8.92;93.22
65836;SHT30;52595;51.608;7.216;2022-11-04T05:01:42;8.89;93.17
65836;SHT30;52595;51.608;7.216;2022-11-04T05:04:07;8.88;93.29
65836;SHT30;52595;51.608;7.216;2022-11-04T05:06:32;8.88;93.36
65836;SHT30;52595;51.608;7.216;2022-11-04T05:08:58;8.86;93.25
65836;SHT30;52595;51.608;7.216;2022-11-04T05:11:23;8.85;93.24
65836;SHT30;52595;51.608;7.216;2022-11-04T05:13:49;8.79;93.31
65836;SHT30;52595;51.608;7.216;2022-11-04T05:16:14;8.71;93.61
65836;SHT30;52595;51.608;7.216;2022-11-04T05:18:39;8.62;93.89
65836;SHT30;52595;51.608;7.216;2022-11-04T05:21:07;8.55;94.19
65836;SHT30;52595;51.608;7.216;2022-11-04T05:23:35;8.45;94.41
65836;SHT30;52595;51.608;7.216;2022-11-04T05:26:01;8.42;94.59
65836;SHT30;52595;51.608;7.216;2022-11-04T05:28:26;8.44;94.72
65836;SHT30;52595;51.608;7.216;2022-11-04T05:30:52;8.51;94.64
65836;SHT30;52595;51.608;7.216;2022-11-04T05:33:17;8.59;94.20
65836;SHT30;52595;51.608;7.216;2022-11-04T05:35:43;8.58;94.07
65836;SHT30;52595;51.608;7.216;2022-11-04T05:38:08;8.62;93.85
65836;SHT30;52595;51.608;7.216;2022-11-04T05:40:34;8.61;93.80
65836;SHT30;52595;51.608;7.216;2022-11-04T05:42:59;8.59;93.91
65836;SHT30;52595;51.608;7.216;2022-11-04T05:45:26;8.51;93.86
65836;SHT30;52595;51.608;7.216;2022-11-04T05:48:03;8.45;94.05
65836;SHT30;52595;51.608;7.216;2022-11-04T05:50:30;8.38;94.21
65836;SHT30;52595;51.608;7.216;2022-11-04T05:52:57;8.30;94.45
65836;SHT30;52595;51.608;7.216;2022-11-04T05:55:23;8.27;94.72
65836;SHT30;52595;51.608;7.216;2022-11-04T05:57:48;8.40;94.49
65836;SHT30;52595;51.608;7.216;2022-11-04T06:00:14;8.47;94.30
65836;SHT30;52595;51.608;7.216;2022-11-04T06:02:39;8.52;94.02
65836;SHT30;52595;51.608;7.216;2022-11-04T06:05:05;8.55;93.84
65836;SHT30;52595;51.608;7.216;2022-11-04T06:07:31;8.68;93.22
65836;SHT30;52595;51.608;7.216;2022-11-04T06:09:56;8.78;92.75
65836;SHT30;52595;51.608;7.216;2022-11-04T06:12:22;8.78;92.56
65836;SHT30;52595;51.608;7.216;2022-11-04T06:14:47;8.67;92.88
65836;SHT30;52595;51.608;7.216;2022-11-04T06:17:14;8.65;93.25
65836;SHT30;52595;51.608;7.216;2022-11-04T06:19:40;8.59;93.12
65836;SHT30;52595;51.608;7.216;2022-11-04T06:22:07;8.71;92.73
65836;SHT30;52595;51.608;7.216;2022-11-04T06:24:32;8.75;92.69
65836;SHT30;52595;51.608;7.216;2022-11-04T06:26:58;8.81;92.53
65836;SHT30;52595;51.608;7.216;2022-11-04T06:29:23;8.89;92.11
65836;SHT30;52595;51.608;7.216;2022-11-04T06:31:49;8.85;92.00
65836;SHT30;52595;51.608;7.216;2022-11-04T06:34:14;8.86;92.16
65836;SHT30;52595;51.608;7.216;2022-11-04T06:36:40;8.83;92.12
65836;SHT30;52595;51.608;7.216;2022-11-04T06:39:05;8.85;92.10
65836;SHT30;52595;51.608;7.216;2022-11-04T06:41:31;8.78;92.39
65836;SHT30;52595;51.608;7.216;2022-11-04T06:43:56;8.83;92.00
65836;SHT30;52595;51.608;7.216;2022-11-04T06:46:30;8.78;92.15
65836;SHT30;52595;51.608;7.216;2022-11-04T06:48:57;8.78;92.17
65836;SHT30;52595;51.608;7.216;2022-11-04T06:51:23;8.85;91.98
65836;SHT30;52595;51.608;7.216;2022-11-04T06:53:49;8.89;91.81
65836;SHT30;52595;51.608;7.216;2022-11-04T06:56:15;8.92;91.71
65836;SHT30;52595;51.608;7.216;2022-11-04T06:58:40;8.91;91.70
65836;SHT30;52595;51.608;7.216;2022-11-04T07:01:06;8.92;91.75
65836;SHT30;52595;51.608;7.216;2022-11-04T07:03:31;9.02;91.41
65836;SHT30;52595;51.608;7.216;2022-11-04T07:05:57;9.02;91.33
65836;SHT30;52595;51.608;7.216;2022-11-04T07:08:22;9.08;91.37
65836;SHT30;52595;51.608;7.216;2022-11-04T07:10:47;9.06;91.29
65836;SHT30;52595;51.608;7.216;2022-11-04T07:13:13;9.12;91.29
65836;SHT30;52595;51.608;7.216;2022-11-04T07:15:40;9.13;91.03
65836;SHT30;52595;51.608;7.216;2022-11-04T07:18:06;9.24;90.75
65836;SHT30;52595;51.608;7.216;2022-11-04T07:20:33;9.30;90.64
65836;SHT30;52595;51.608;7.216;2022-11-04T07:22:58;9.34;90.65
65836;SHT30;52595;51.608;7.216;2022-11-04T07:25:23;9.32;91.01
65836;SHT30;52595;51.608;7.216;2022-11-04T07:27:49;9.34;91.02
65836;SHT30;52595;51.608;7.216;2022-11-04T07:30:14;9.26;91.31
65836;SHT30;52595;51.608;7.216;2022-11-04T07:32:40;9.34;90.93
65836;SHT30;52595;51.608;7.216;2022-11-04T07:35:05;9.36;91.05
65836;SHT30;52595;51.608;7.216;2022-11-04T07:37:31;9.43;91.26
65836;SHT30;52595;51.608;7.216;2022-11-04T07:39:56;9.47;90.86
65836;SHT30;52595;51.608;7.216;2022-11-04T07:42:21;9.56;90.82
65836;SHT30;52595;51.608;7.216;2022-11-04T07:44:47;9.63;90.85
65836;SHT30;52595;51.608;7.216;2022-11-04T07:47:12;9.76;90.67
65836;SHT30;52595;51.608;7.216;2022-11-04T07:49:38;9.84;90.59
65836;SHT30;52595;51.608;7.216;2022-11-04T07:52:04;9.95;90.32
65836;SHT30;52595;51.608;7.216;2022-11-04T07:54:29;10.02;89.48
65836;SHT30;52595;51.608;7.216;2022-11-04T07:56:54;10.14;88.53
65836;SHT30;52595;51.608;7.216;2022-11-04T07:59:20;10.19;87.87
65836;SHT30;52595;51.608;7.216;2022-11-04T08:01:45;10.27;86.97
65836;SHT30;52595;51.608;7.216;2022-11-04T08:04:10;10.27;87.54
65836;SHT30;52595;51.608;7.216;2022-11-04T08:06:36;10.31;87.77
65836;SHT30;52595;51.608;7.216;2022-11-04T08:09:01;10.35;87.93
65836;SHT30;52595;51.608;7.216;2022-11-04T08:11:26;10.44;87.66
65836;SHT30;52595;51.608;7.216;2022-11-04T08:13:53;10.52;87.32
65836;SHT30;52595;51.608;7.216;2022-11-04T08:16:20;10.65;86.86
65836;SHT30;52595;51.608;7.216;2022-11-04T08:18:47;10.75;86.07
65836;SHT30;52595;51.608;7.216;2022-11-04T08:21:13;10.86;85.84
65836;SHT30;52595;51.608;7.216;2022-11-04T08:23:39;10.92;85.48
65836;SHT30;52595;51.608;7.216;2022-11-04T08:26:16;10.97;85.69
65836;SHT30;52595;51.608;7.216;2022-11-04T08:28:42;11.09;85.41
65836;SHT30;52595;51.608;7.216;2022-11-04T08:31:10;11.09;84.46
65836;SHT30;52595;51.608;7.216;2022-11-04T08:33:37;11.07;84.08
65836;SHT30;52595;51.608;7.216;2022-11-04T08:36:14;11.19;84.39
65836;SHT30;52595;51.608;7.216;2022-11-04T08:38:41;11.14;84.07
65836;SHT30;52595;51.608;7.216;2022-11-04T08:41:08;11.12;84.50
65836;SHT30;52595;51.608;7.216;2022-11-04T08:43:34;11.22;84.60
65836;SHT30;52595;51.608;7.216;2022-11-04T08:46:00;11.26;83.64
65836;SHT30;52595;51.608;7.216;2022-11-04T08:48:26;11.36;83.47
65836;SHT30;52595;51.608;7.216;2022-11-04T08:50:54;11.44;83.31
65836;SHT30;52595;51.608;7.216;2022-11-04T08:53:20;11.44;82.92
65836;SHT30;52595;51.608;7.216;2022-11-04T08:55:45;11.44;82.66
65836;SHT30;52595;51.608;7.216;2022-11-04T08:58:11;11.37;82.34
65836;SHT30;52595;51.608;7.216;2022-11-04T09:00:36;11.28;82.86
65836;SHT30;52595;51.608;7.216;2022-11-04T09:03:02;11.23;83.20
65836;SHT30;52595;51.608;7.216;2022-11-04T09:05:28;11.24;83.31
65836;SHT30;52595;51.608;7.216;2022-11-04T09:07:54;11.24;82.81
65836;SHT30;52595;51.608;7.216;2022-11-04T09:10:20;11.26;83.21
65836;SHT30;52595;51.608;7.216;2022-11-04T09:12:45;11.22;83.32
65836;SHT30;52595;51.608;7.216;2022-11-04T09:15:12;11.22;83.29
65836;SHT30;52595;51.608;7.216;2022-11-04T09:17:37;11.23;83.47
65836;SHT30;52595;51.608;7.216;2022-11-04T09:20:03;11.16;83.08
65836;SHT30;52595;51.608;7.216;2022-11-04T09:22:29;11.00;83.61
65836;SHT30;52595;51.608;7.216;2022-11-04T09:24:56;11.00;83.91
65836;SHT30;52595;51.608;7.216;2022-11-04T09:27:21;11.10;84.40
65836;SHT30;52595;51.608;7.216;2022-11-04T09:29:47;11.23;84.23
65836;SHT30;52595;51.608;7.216;2022-11-04T09:32:12;11.38;83.89
65836;SHT30;52595;51.608;7.216;2022-11-04T09:34:37;11.37;83.88
65836;SHT30;52595;51.608;7.216;2022-11-04T09:37:03;11.34;84.51
65836;SHT30;52595;51.608;7.216;2022-11-04T09:39:28;11.23;84.93
65836;SHT30;52595;51.608;7.216;2022-11-04T09:42:09;11.03;85.60
65836;SHT30;52595;51.608;7.216;2022-11-04T09:44:56;10.93;85.82
65836;SHT30;52595;51.608;7.216;2022-11-04T09:47:25;11.12;85.65
65836;SHT30;52595;51.608;7.216;2022-11-04T09:49:53;11.23;85.62
65836;SHT30;52595;51.608;7.216;2022-11-04T09:52:27;11.41;85.06
65836;SHT30;52595;51.608;7.216;2022-11-04T09:57:22;11.37;84.22
65836;SHT30;52595;51.608;7.216;2022-11-04T09:59:48;11.33;83.65
65836;SHT30;52595;51.608;7.216;2022-11-04T10:02:32;11.41;84.16
65836;SHT30;52595;51.608;7.216;2022-11-04T10:10:50;11.51;84.23
65836;SHT30;52595;51.608;7.216;2022-11-04T10:16:02;11.48;83.87
65836;SHT30;52595;51.608;7.216;2022-11-04T10:24:36;12.02;83.17
65836;SHT30;52595;51.608;7.216;2022-11-04T10:27:13;12.09;81.75
65836;SHT30;52595;51.608;7.216;2022-11-04T10:29:43;11.98;81.74
65836;SHT30;52595;51.608;7.216;2022-11-04T10:32:39;11.91;82.24
65836;SHT30;52595;51.608;7.216;2022-11-04T10:35:30;12.08;82.66
65836;SHT30;52595;51.608;7.216;2022-11-04T10:37:58;11.88;82.51
65836;SHT30;52595;51.608;7.216;2022-11-04T10:40:29;11.94;82.33
65836;SHT30;52595;51.608;7.216;2022-11-04T10:42:59;12.06;81.80
65836;SHT30;52595;51.608;7.216;2022-11-04T10:45:33;12.09;82.02
65836;SHT30;52595;51.608;7.216;2022-11-04T10:48:09;12.38;81.47
65836;SHT30;52595;51.608;7.216;2022-11-04T10:50:56;12.21;81.25
65836;SHT30;52595;51.608;7.216;2022-11-04T10:53:28;12.15;81.66
65836;SHT30;52595;51.608;7.216;2022-11-04T10:58:45;12.49;80.74
65836;SHT30;52595;51.608;7.216;2022-11-04T11:03:53;12.73;80.61
65836;SHT30;52595;51.608;7.216;2022-11-04T11:08:48;12.35;80.51
65836;SHT30;52595;51.608;7.216;2022-11-04T11:11:15;12.32;81.19
65836;SHT30;52595;51.608;7.216;2022-11-04T11:13:43;12.25;81.12
65836;SHT30;52595;51.608;7.216;2022-11-04T11:16:24;12.18;81.38
65836;SHT30;52595;51.608;7.216;2022-11-04T11:21:45;11.88;81.73
65836;SHT30;52595;51.608;7.216;2022-11-04T11:24:26;11.85;81.87
65836;SHT30;52595;51.608;7.216;2022-11-04T11:26:59;11.89;81.71
65836;SHT30;52595;51.608;7.216;2022-11-04T11:29:27;12.02;81.68
65836;SHT30;52595;51.608;7.216;2022-11-04T11:31:55;12.15;81.36
65836;SHT30;52595;51.608;7.216;2022-11-04T11:34:32;12.14;81.46
65836;SHT30;52595;51.608;7.216;2022-11-04T11:37:00;12.33;81.29
65836;SHT30;52595;51.608;7.216;2022-11-04T11:39:30;12.40;80.91
65836;SHT30;52595;51.608;7.216;2022-11-04T11:42:01;12.45;80.48
65836;SHT30;52595;51.608;7.216;2022-11-04T11:44:29;12.55;80.52
65836;SHT30;52595;51.608;7.216;2022-11-04T11:47:54;12.66;80.32
65836;SHT30;52595;51.608;7.216;2022-11-04T11:50:17;12.64;79.75
65836;SHT30;52595;51.608;7.216;2022-11-04T11:52:47;12.63;80.05
65836;SHT30;52595;51.608;7.216;2022-11-04T12:00:18;12.11;81.44
65836;SHT30;52595;51.608;7.216;2022-11-04T12:05:15;12.09;81.48
65836;SHT30;52595;51.608;7.216;2022-11-04T12:10:55;12.26;81.19
65836;SHT30;52595;51.608;7.216;2022-11-04T12:13:26;12.35;81.07
65836;SHT30;52595;51.608;7.216;2022-11-04T12:29:54;12.25;81.83
65836;SHT30;52595;51.608;7.216;2022-11-04T12:35:42;12.50;81.09
65836;SHT30;52595;51.608;7.216;2022-11-04T12:38:22;12.48;80.25
65836;SHT30;52595;51.608;7.216;2022-11-04T12:47:12;11.89;81.88
65836;SHT30;52595;51.608;7.216;2022-11-04T13:00:46;12.22;81.11
65836;SHT30;52595;51.608;7.216;2022-11-04T13:03:20;12.18;80.75
65836;SHT30;52595;51.608;7.216;2022-11-04T13:05:53;12.24;80.82
65836;SHT30;52595;51.608;7.216;2022-11-04T13:08:38;12.06;80.68
65836;SHT30;52595;51.608;7.216;2022-11-04T13:11:11;12.05;80.75
65836;SHT30;52595;51.608;7.216;2022-11-04T13:13:56;12.25;80.34
65836;SHT30;52595;51.608;7.216;2022-11-04T13:16:22;12.29;80.13
65836;SHT30;52595;51.608;7.216;2022-11-04T13:18:48;12.25;79.74
65836;SHT30;52595;51.608;7.216;2022-11-04T13:21:24;12.25;80.21
65836;SHT30;52595;51.608;7.216;2022-11-04T13:24:13;12.28;80.11
65836;SHT30;52595;51.608;7.216;2022-11-04T13:26:41;12.45;78.94
65836;SHT30;52595;51.608;7.216;2022-11-04T13:29:13;12.45;79.04
65836;SHT30;52595;51.608;7.216;2022-11-04T13:31:50;12.40;79.49
65836;SHT30;52595;51.608;7.216;2022-11-04T13:39:51;12.59;78.54
65836;SHT30;52595;51.608;7.216;2022-11-04T13:42:37;12.60;79.13
65836;SHT30;52595;51.608;7.216;2022-11-04T13:45:11;12.60;79.32
65836;SHT30;52595;51.608;7.216;2022-11-04T13:47:56;12.62;79.61
65836;SHT30;52595;51.608;7.216;2022-11-04T13:50:34;12.45;79.65
65836;SHT30;52595;51.608;7.216;2022-11-04T13:53:02;12.43;80.34
65836;SHT30;52595;51.608;7.216;2022-11-04T13:55:27;12.50;79.90
65836;SHT30;52595;51.608;7.216;2022-11-04T14:00:23;12.53;79.52
65836;SHT30;52595;51.608;7.216;2022-11-04T14:02:51;12.56;79.87
65836;SHT30;52595;51.608;7.216;2022-11-04T14:18:50;12.67;78.04
65836;SHT30;52595;51.608;7.216;2022-11-04T14:21:20;12.63;77.44
65836;SHT30;52595;51.608;7.216;2022-11-04T14:26:16;12.49;78.14
65836;SHT30;52595;51.608;7.216;2022-11-04T14:28:45;12.48;78.67
65836;SHT30;52595;51.608;7.216;2022-11-04T14:31:13;12.50;78.81
65836;SHT30;52595;51.608;7.216;2022-11-04T14:33:57;12.43;78.82
65836;SHT30;52595;51.608;7.216;2022-11-04T14:36:26;12.46;78.98
65836;SHT30;52595;51.608;7.216;2022-11-04T14:44:29;12.75;77.58
65836;SHT30;52595;51.608;7.216;2022-11-04T14:46:59;12.63;78.12
65836;SHT30;52595;51.608;7.216;2022-11-04T14:49:49;12.49;79.19
65836;SHT30;52595;51.608;7.216;2022-11-04T14:54:46;12.19;81.57
65836;SHT30;52595;51.608;7.216;2022-11-04T14:57:17;12.19;81.39
65836;SHT30;52595;51.608;7.216;2022-11-04T14:59:43;12.09;81.60
65836;SHT30;52595;51.608;7.216;2022-11-04T15:02:23;12.06;82.00
65836;SHT30;52595;51.608;7.216;2022-11-04T15:04:54;12.02;82.53
65836;SHT30;52595;51.608;7.216;2022-11-04T15:09:55;11.84;83.41
65836;SHT30;52595;51.608;7.216;2022-11-04T15:12:20;11.75;83.62
65836;SHT30;52595;51.608;7.216;2022-11-04T15:15:24;11.70;83.67
65836;SHT30;52595;51.608;7.216;2022-11-04T15:17:51;11.65;83.96
65836;SHT30;52595;51.608;7.216;2022-11-04T15:20:23;11.65;84.36
65836;SHT30;52595;51.608;7.216;2022-11-04T15:22:50;11.63;84.63
65836;SHT30;52595;51.608;7.216;2022-11-04T15:25:17;11.58;84.76
65836;SHT30;52595;51.608;7.216;2022-11-04T15:27:43;11.57;84.72
65836;SHT30;52595;51.608;7.216;2022-11-04T15:30:27;11.53;84.63
65836;SHT30;52595;51.608;7.216;2022-11-04T15:33:01;11.48;84.84
65836;SHT30;52595;51.608;7.216;2022-11-04T15:35:28;11.50;84.75
65836;SHT30;52595;51.608;7.216;2022-11-04T15:37:55;11.44;85.01
65836;SHT30;52595;51.608;7.216;2022-11-04T15:40:23;11.48;84.96
65836;SHT30;52595;51.608;7.216;2022-11-04T15:42:49;11.45;85.14
65836;SHT30;52595;51.608;7.216;2022-11-04T15:47:46;11.33;85.73
65836;SHT30;52595;51.608;7.216;2022-11-04T15:50:21;11.28;85.85
65836;SHT30;52595;51.608;7.216;2022-11-04T15:52:54;11.37;85.42
65836;SHT30;52595;51.608;7.216;2022-11-04T15:55:22;11.36;85.40
65836;SHT30;52595;51.608;7.216;2022-11-04T15:57:50;11.31;85.67
65836;SHT30;52595;51.608;7.216;2022-11-04T16:12:48;11.34;82.73
65836;SHT30;52595;51.608;7.216;2022-11-04T16:15:33;11.24;83.07
65836;SHT30;52595;51.608;7.216;2022-11-04T16:18:01;11.16;83.27
65836;SHT30;52595;51.608;7.216;2022-11-04T16:20:26;11.12;83.47
65836;SHT30;52595;51.608;7.216;2022-11-04T16:22:57;11.10;83.47
65836;SHT30;52595;51.608;7.216;2022-11-04T16:25:24;11.10;83.31
65836;SHT30;52595;51.608;7.216;2022-11-04T16:27:53;11.09;83.30
65836;SHT30;52595;51.608;7.216;2022-11-04T16:30:20;11.03;83.52
65836;SHT30;52595;51.608;7.216;2022-11-04T16:32:53;11.07;83.85
65836;SHT30;52595;51.608;7.216;2022-11-04T16:35:25;11.02;84.05
65836;SHT30;52595;51.608;7.216;2022-11-04T16:37:52;11.00;84.37
65836;SHT30;52595;51.608;7.216;2022-11-04T16:40:18;10.97;84.68
65836;SHT30;52595;51.608;7.216;2022-11-04T16:42:44;10.96;85.00
65836;SHT30;52595;51.608;7.216;2022-11-04T16:45:36;10.90;85.18
65836;SHT30;52595;51.608;7.216;2022-11-04T16:48:03;10.84;85.99
65836;SHT30;52595;51.608;7.216;2022-11-04T16:50:29;10.82;86.12
65836;SHT30;52595;51.608;7.216;2022-11-04T16:52:57;10.77;86.67
65836;SHT30;52595;51.608;7.216;2022-11-04T16:55:23;10.72;87.09
65836;SHT30;52595;51.608;7.216;2022-11-04T16:58:00;10.72;87.42
65836;SHT30;52595;51.608;7.216;2022-11-04T17:00:26;10.71;87.69
65836;SHT30;52595;51.608;7.216;2022-11-04T17:02:52;10.63;88.13
65836;SHT30;52595;51.608;7.216;2022-11-04T17:05:18;10.61;88.36
65836;SHT30;52595;51.608;7.216;2022-11-04T17:07:44;10.59;88.64
65836;SHT30;52595;51.608;7.216;2022-11-04T17:10:19;10.58;88.89
65836;SHT30;52595;51.608;7.216;2022-11-04T17:12:45;10.56;89.07
65836;SHT30;52595;51.608;7.216;2022-11-04T17:15:11;10.53;89.19
65836;SHT30;52595;51.608;7.216;2022-11-04T17:17:36;10.53;89.27
65836;SHT30;52595;51.608;7.216;2022-11-04T17:20:02;10.52;89.46
65836;SHT30;52595;51.608;7.216;2022-11-04T17:22:30;10.52;89.48
65836;SHT30;52595;51.608;7.216;2022-11-04T17:24:56;10.51;89.58
65836;SHT30;52595;51.608;7.216;2022-11-04T17:27:21;10.42;89.81
65836;SHT30;52595;51.608;7.216;2022-11-04T17:29:47;10.37;89.90
65836;SHT30;52595;51.608;7.216;2022-11-04T17:32:12;10.31;90.38
65836;SHT30;52595;51.608;7.216;2022-11-04T17:34:38;10.21;90.62
65836;SHT30;52595;51.608;7.216;2022-11-04T17:37:05;10.19;90.98
65836;SHT30;52595;51.608;7.216;2022-11-04T17:39:30;10.22;91.05
65836;SHT30;52595;51.608;7.216;2022-11-04T17:41:56;10.24;91.04
65836;SHT30;52595;51.608;7.216;2022-11-04T17:44:40;10.19;91.25
65836;SHT30;52595;51.608;7.216;2022-11-04T17:47:05;10.22;91.19
65836;SHT30;52595;51.608;7.216;2022-11-04T17:49:34;10.24;91.19
65836;SHT30;52595;51.608;7.216;2022-11-04T17:51:59;10.19;91.29
65836;SHT30;52595;51.608;7.216;2022-11-04T17:54:28;10.11;91.47
65836;SHT30;52595;51.608;7.216;2022-11-04T17:56:55;10.05;91.81
65836;SHT30;52595;51.608;7.216;2022-11-04T17:59:21;9.95;91.92
65836;SHT30;52595;51.608;7.216;2022-11-04T18:01:46;9.88;92.12
65836;SHT30;52595;51.608;7.216;2022-11-04T18:04:18;9.84;92.48
65836;SHT30;52595;51.608;7.216;2022-11-04T18:06:44;9.74;92.46
65836;SHT30;52595;51.608;7.216;2022-11-04T18:09:10;9.71;92.86
65836;SHT30;52595;51.608;7.216;2022-11-04T18:11:36;9.71;92.79
65836;SHT30;52595;51.608;7.216;2022-11-04T18:14:20;9.61;93.02
65836;SHT30;52595;51.608;7.216;2022-11-04T18:16:47;9.60;93.15
65836;SHT30;52595;51.608;7.216;2022-11-04T18:19:14;9.51;93.07
65836;SHT30;52595;51.608;7.216;2022-11-04T18:21:39;9.46;93.49